Time;durP1;ratioP1;P1;durP2;ratioP2;P2;SDS_P1;SDS_P2;PMS_P1;PMS_P2;Temp;Humidity;BMP_temperature;BMP_pressure;BME280_temperature;BME280_humidity;BME280_pressure;Samples;Min_cycle;Max_cycle;Signal;HPM_P1;HPM_P2
2022/07/01 00:01:03;;;;;;;0.30;0.30;;;23.40;71.40;;;24.11;54.68;94573.38;5051894;28;20294;-78
2022/07/01 00:03:30;;;;;;;0.40;0.40;;;23.40;71.20;;;24.08;55.26;94577.44;5033291;28;20288;-79
2022/07/01 00:05:57;;;;;;;0.40;0.40;;;23.40;71.30;;;24.03;55.77;94584.72;5072068;28;20696;-79
2022/07/01 00:08:24;;;;;;;0.32;0.32;;;23.40;71.10;;;24.01;55.69;94581.50;5055812;28;20195;-78
2022/07/01 00:10:51;;;;;;;0.40;0.40;;;23.40;71.30;;;23.97;56.38;94573.25;5046647;28;20223;-79
2022/07/01 00:13:18;;;;;;;0.40;0.40;;;23.50;71.50;;;24.00;55.60;94575.38;5064895;28;20187;-78
2022/07/01 00:15:45;;;;;;;0.40;0.40;;;23.40;71.30;;;23.99;55.87;94581.81;5047238;28;20241;-78
2022/07/01 00:18:13;;;;;;;0.30;0.30;;;23.40;71.00;;;23.99;55.62;94589.84;5072491;28;20566;-79
2022/07/01 00:20:40;;;;;;;0.30;0.30;;;23.50;71.00;;;24.05;55.34;94591.38;5071416;28;20218;-78
2022/07/01 00:23:07;;;;;;;0.40;0.40;;;23.50;71.10;;;24.06;55.25;94605.56;5038288;28;20315;-79
2022/07/01 00:25:34;;;;;;;0.40;0.40;;;23.50;71.10;;;24.07;55.11;94601.81;5039400;28;20219;-79
2022/07/01 00:28:01;;;;;;;0.40;0.40;;;23.50;71.30;;;24.09;55.43;94607.69;5071295;28;20636;-79
2022/07/01 00:30:29;;;;;;;0.40;0.40;;;23.60;71.30;;;24.13;55.43;94606.84;5051196;28;20224;-78
2022/07/01 00:32:57;;;;;;;0.40;0.40;;;23.50;71.10;;;24.13;55.03;94609.53;5071232;28;20264;-78
2022/07/01 00:35:24;;;;;;;0.38;0.38;;;23.60;71.30;;;24.09;55.07;94596.97;5037815;28;20231;-79
2022/07/01 00:37:51;;;;;;;0.45;0.45;;;23.50;71.10;;;24.07;55.25;94588.41;5053382;28;20245;-79
2022/07/01 00:40:19;;;;;;;0.35;0.35;;;23.50;71.00;;;24.09;54.76;94594.28;5058068;28;20230;-79
2022/07/01 00:42:46;;;;;;;0.30;0.30;;;23.50;70.80;;;24.06;55.12;94589.50;5038239;28;20234;-79
2022/07/01 00:45:14;;;;;;;0.40;0.40;;;23.50;70.90;;;24.04;55.52;94581.75;5071948;28;20672;-78
2022/07/01 00:47:43;;;;;;;0.32;0.32;;;23.50;70.70;;;24.00;55.13;94582.59;5055871;28;20200;-79
2022/07/01 00:50:14;;;;;;;0.50;0.50;;;23.40;70.70;;;23.94;54.88;94576.50;5046082;28;20249;-79
2022/07/01 00:52:44;;;;;;;0.40;0.40;;;23.40;70.70;;;23.88;54.98;94573.06;5044470;28;20200;-78
2022/07/01 00:55:13;;;;;;;0.40;0.40;;;23.50;70.60;;;23.79;55.36;94556.81;5068195;28;20223;-78
2022/07/01 00:57:43;;;;;;;0.40;0.40;;;23.40;70.60;;;23.80;55.10;94573.66;5055266;28;20193;-78
2022/07/01 01:00:15;;;;;;;0.35;0.35;;;23.40;70.80;;;23.77;54.94;94575.03;5037955;28;20210;-78
2022/07/01 01:02:42;;;;;;;0.40;0.40;;;23.30;70.40;;;23.76;55.01;94584.16;5052706;28;20251;-79
2022/07/01 01:05:10;;;;;;;0.35;0.35;;;23.30;70.50;;;23.74;55.07;94580.97;5071404;28;20271;-79
2022/07/01 01:07:37;;;;;;;0.30;0.30;;;23.40;70.40;;;23.74;54.66;94580.97;5054935;28;20206;-79
2022/07/01 01:10:05;;;;;;;0.40;0.40;;;23.30;70.30;;;23.74;54.89;94582.84;5054303;28;20297;-77
2022/07/01 01:12:33;;;;;;;0.40;0.40;;;23.30;70.40;;;23.71;54.64;94581.53;5050667;28;20199;-79
2022/07/01 01:15:01;;;;;;;0.40;0.40;;;23.20;70.20;;;23.73;54.88;94578.56;5034970;28;20227;-79
2022/07/01 01:17:28;;;;;;;0.35;0.35;;;23.20;70.30;;;23.73;54.56;94583.91;5051363;28;20217;-79
2022/07/01 01:19:56;;;;;;;0.40;0.40;;;23.20;70.20;;;23.73;54.49;94583.91;5034689;28;20685;-80
2022/07/01 01:22:23;;;;;;;0.40;0.40;;;23.20;70.90;;;23.70;54.39;94576.47;5048966;28;20581;-79
2022/07/01 01:24:50;;;;;;;0.40;0.40;;;23.20;70.30;;;23.67;54.40;94581.28;5051022;28;20215;-78
2022/07/01 01:27:18;;;;;;;0.40;0.40;;;23.20;70.30;;;23.67;54.39;94578.63;5051236;28;20203;-79
2022/07/01 01:29:45;;;;;;;0.30;0.30;;;23.20;70.10;;;23.67;54.40;94581.28;5034790;28;20238;-78
2022/07/01 01:32:12;;;;;;;0.30;0.30;;;23.10;70.00;;;23.68;54.53;94584.78;5034807;28;20257;-78
2022/07/01 01:34:40;;;;;;;0.40;0.40;;;23.10;70.10;;;23.69;54.57;94588.25;5035327;28;20238;-78
2022/07/01 01:37:09;;;;;;;0.40;0.40;;;23.10;70.20;;;23.69;54.71;94590.94;5050252;28;20195;-79
2022/07/01 01:39:39;;;;;;;0.40;0.40;;;23.20;70.50;;;23.64;54.30;94589.91;5057546;28;20711;-79
2022/07/01 01:42:07;;;;;;;0.50;0.50;;;23.10;71.20;;;23.62;54.43;94588.56;5054945;28;20258;-79
2022/07/01 01:44:36;;;;;;;0.40;0.40;;;23.10;70.30;;;23.60;54.58;94580.81;5050365;28;20269;-79
2022/07/01 01:47:04;;;;;;;0.30;0.30;;;23.10;70.30;;;23.56;54.55;94578.97;5018131;28;20231;-78
2022/07/01 01:49:31;;;;;;;0.40;0.40;;;23.10;70.40;;;23.54;54.95;94573.91;5050968;28;20227;-79
2022/07/01 01:51:59;;;;;;;0.40;0.40;;;23.10;70.60;;;23.49;55.11;94568.63;5067288;28;20264;-79
2022/07/01 01:54:27;;;;;;;0.40;0.40;;;23.00;70.60;;;23.44;54.95;94566.78;5054081;28;20226;-79
2022/07/01 01:56:55;;;;;;;0.30;0.30;;;23.00;70.60;;;23.42;55.36;94570.81;5054240;28;20685;-78
2022/07/01 01:59:22;;;;;;;0.30;0.30;;;22.90;70.70;;;23.38;55.46;94565.22;5069606;28;20187;-78
2022/07/01 02:01:49;;;;;;;0.40;0.40;;;22.90;70.80;;;23.38;55.15;94567.91;5037129;28;20252;-79
2022/07/01 02:04:17;;;;;;;0.50;0.50;;;22.90;70.90;;;23.36;55.61;94567.38;5037745;28;20205;-79
2022/07/01 02:06:44;;;;;;;0.40;0.40;;;22.90;70.90;;;23.40;55.16;94567.63;5066415;28;20199;-79
2022/07/01 02:09:11;;;;;;;0.30;0.30;;;22.90;71.00;;;23.40;55.45;94560.41;5033920;28;20194;-78
2022/07/01 02:11:38;;;;;;;0.40;0.40;;;22.90;71.10;;;23.41;55.50;94559.34;5050581;28;20310;-78
2022/07/01 02:14:06;;;;;;;0.40;0.40;;;22.90;71.00;;;23.45;55.53;94552.31;5034289;28;20196;-79
2022/07/01 02:16:33;;;;;;;0.47;0.47;;;22.90;71.10;;;23.45;55.62;94551.53;5067301;28;20239;-79
2022/07/01 02:19:00;;;;;;;0.30;0.30;;;22.90;71.00;;;23.49;55.26;94563.28;5064676;28;20205;-79
2022/07/01 02:21:28;;;;;;;0.40;0.40;;;22.90;71.00;;;23.49;55.60;94563.28;5054111;28;20227;-79
2022/07/01 02:23:55;;;;;;;0.40;0.40;;;22.90;71.00;;;23.49;55.39;94552.56;5070427;28;20716;-79
2022/07/01 02:26:22;;;;;;;0.40;0.40;;;23.00;71.00;;;23.48;55.02;94564.34;5056026;28;20305;-79
2022/07/01 02:28:50;;;;;;;0.40;0.40;;;23.00;70.80;;;23.54;54.91;94570.47;5053525;28;20202;-78
2022/07/01 02:31:17;;;;;;;0.40;0.40;;;23.00;70.80;;;23.56;54.97;94570.94;5070527;28;20215;-79
2022/07/01 02:33:44;;;;;;;0.30;0.30;;;23.00;70.70;;;23.55;55.24;94564.03;5036852;28;20238;-79
2022/07/01 02:36:11;;;;;;;0.40;0.40;;;23.00;70.40;;;23.57;54.37;94564.53;5051451;28;20777;-79
2022/07/01 02:38:38;;;;;;;0.40;0.40;;;23.00;70.20;;;23.57;54.42;94569.88;5033736;28;20199;-78
2022/07/01 02:41:05;;;;;;;0.38;0.38;;;23.00;70.50;;;23.55;54.41;94564.03;5050348;28;20261;-78
2022/07/01 02:43:32;;;;;;;0.32;0.32;;;23.10;70.50;;;23.53;54.71;94569.66;5053006;28;20190;-79
2022/07/01 02:46:00;;;;;;;0.40;0.40;;;23.00;70.00;;;23.52;54.14;94577.97;5070281;28;20231;-79
2022/07/01 02:48:27;;;;;;;0.40;0.40;;;23.00;69.80;;;23.51;54.24;94579.84;5053815;28;20223;-79
2022/07/01 02:50:54;;;;;;;0.32;0.32;;;22.90;69.60;;;23.50;53.79;94584.41;5069571;28;20230;-79
2022/07/01 02:53:21;;;;;;;0.38;0.38;;;22.90;69.70;;;23.49;54.04;94582.00;5071380;28;20222;-79
2022/07/01 02:55:48;;;;;;;0.43;0.43;;;22.90;70.20;;;23.48;54.01;94585.75;5057492;28;20304;-79
2022/07/01 02:58:16;;;;;;;0.40;0.40;;;22.90;70.10;;;23.42;54.19;94578.84;5057279;28;20194;-79
2022/07/01 03:00:43;;;;;;;0.50;0.50;;;22.90;70.10;;;23.36;54.26;94572.75;5053489;28;20227;-79
2022/07/01 03:03:10;;;;;;;0.40;0.40;;;22.90;70.10;;;23.28;54.12;94574.16;5057223;28;20307;-79
2022/07/01 03:05:38;;;;;;;0.40;0.40;;;22.70;70.10;;;23.22;54.46;94571.78;5073905;28;20206;-79
2022/07/01 03:08:05;;;;;;;0.40;0.40;;;22.70;70.10;;;23.14;54.76;94565.94;5057065;28;20202;-79
2022/07/01 03:10:32;;;;;;;0.40;0.40;;;22.70;70.10;;;23.05;54.67;94572.97;5074453;28;20342;-79
2022/07/01 03:13:01;;;;;;;0.40;0.40;;;22.60;70.10;;;23.02;54.49;94574.31;5057044;28;20205;-79
2022/07/01 03:15:30;;;;;;;0.50;0.50;;;22.60;70.20;;;23.02;54.66;94578.84;5057423;28;20680;-78
2022/07/01 03:17:57;;;;;;;0.40;0.40;;;22.50;70.50;;;22.97;54.66;94579.72;5057133;28;20189;-79
2022/07/01 03:20:24;;;;;;;0.40;0.40;;;22.50;70.60;;;22.93;55.15;94577.88;5046888;28;20257;-79
2022/07/01 03:22:51;;;;;;;0.50;0.50;;;22.40;70.60;;;22.88;54.54;94577.91;5020024;28;20554;-79
2022/07/01 03:25:18;;;;;;;0.40;0.40;;;22.40;70.70;;;22.83;54.92;94576.84;5036967;28;20287;-79
2022/07/01 03:27:45;;;;;;;0.45;0.45;;;22.30;70.50;;;22.76;55.03;94571.00;5059026;28;20585;-79
2022/07/01 03:30:14;;;;;;;0.40;0.40;;;22.40;70.10;;;22.71;54.84;94571.84;5072221;28;20230;-78
2022/07/01 03:32:42;;;;;;;0.40;0.40;;;22.30;70.00;;;22.76;54.36;94578.25;5056067;28;20204;-79
2022/07/01 03:37:57;;;;;;;0.40;0.40;;;22.20;70.20;;;22.82;54.84;94590.50;5058885;28;20199;-79
2022/07/01 03:40:24;;;;;;;0.40;0.40;;;22.30;70.50;;;22.87;54.52;94590.47;5035860;28;20223;-79
2022/07/01 03:42:52;;;;;;;0.47;0.47;;;22.30;70.40;;;22.93;54.61;94604.63;5036604;28;20200;-79
2022/07/01 03:45:19;;;;;;;0.40;0.40;;;22.30;70.30;;;22.99;54.16;94614.19;5052942;28;20741;-79
2022/07/01 03:47:48;;;;;;;0.40;0.40;;;22.40;70.30;;;23.09;54.60;94629.38;5036362;28;20639;-79
2022/07/01 03:50:22;;;;;;;0.40;0.40;;;22.40;70.60;;;23.15;54.68;94637.09;5076248;28;20226;-78
2022/07/01 03:54:29;;;;;;;0.40;0.40;;;22.60;70.90;;;23.23;56.02;94637.59;5055876;28;20186;-79
2022/07/01 03:55:38;;;;;;;0.40;0.40;;;22.60;71.70;;;23.27;56.17;94638.66;5057375;28;20253;-78
2022/07/01 03:58:06;;;;;;;0.70;0.70;;;22.70;71.80;;;23.23;56.16;94626.91;5063548;28;20210;-79
2022/07/01 04:00:35;;;;;;;0.40;0.40;;;22.70;71.80;;;23.23;56.30;94633.06;5039543;28;20219;-78
2022/07/01 04:03:04;;;;;;;0.50;0.50;;;22.80;71.70;;;23.27;55.83;94639.44;5086073;28;20198;-78
2022/07/01 04:05:34;;;;;;;0.40;0.40;;;22.80;71.40;;;23.26;56.19;94651.22;5050662;28;20241;-78
2022/07/01 04:08:07;;;;;;;0.38;0.38;;;22.80;71.30;;;23.24;55.95;94645.38;5036470;28;20217;-78
2022/07/01 04:10:35;;;;;;;0.40;0.40;;;22.80;71.10;;;23.25;55.71;94635.44;5066549;28;20227;-79
2022/07/01 04:13:03;;;;;;;0.50;0.50;;;22.80;70.90;;;23.25;55.47;94644.28;5051730;28;20687;-80
2022/07/01 04:15:51;;;;;;;0.40;0.40;;;22.80;70.70;;;23.26;55.31;94643.19;5042401;28;20224;-79
2022/07/01 04:18:19;;;;;;;0.40;0.40;;;22.90;70.80;;;23.30;54.78;94649.59;5055389;28;20206;-79
2022/07/01 04:23:33;;;;;;;0.50;0.50;;;22.90;70.30;;;23.36;54.73;94636.97;5052260;28;20615;-79
2022/07/01 04:26:01;;;;;;;0.40;0.40;;;22.90;70.40;;;23.41;54.58;94642.31;5052842;28;20230;-78
2022/07/01 04:28:48;;;;;;;0.50;0.50;;;23.00;70.30;;;23.44;54.24;94646.28;5058635;28;20190;-79
2022/07/01 04:31:15;;;;;;;0.40;0.40;;;23.00;70.10;;;23.50;54.02;94643.28;5054616;28;20233;-80
2022/07/01 04:33:42;;;;;;;0.40;0.40;;;23.10;70.00;;;23.55;54.36;94639.78;5071810;28;20205;-80
2022/07/01 04:36:09;;;;;;;0.35;0.35;;;23.10;69.90;;;23.63;53.91;94641.03;5070394;28;20234;-80
2022/07/01 04:38:36;;;;;;;0.40;0.40;;;23.10;69.80;;;23.73;53.85;94645.50;5071913;28;20197;-80
2022/07/01 04:43:48;;;;;;;0.30;0.30;;;23.40;69.60;;;23.88;53.50;94645.38;5072134;28;20655;-80
2022/07/01 04:46:15;;;;;;;0.40;0.40;;;23.40;69.40;;;23.99;52.93;94651.47;5066090;28;20227;-80
2022/07/01 04:48:43;;;;;;;0.40;0.40;;;23.40;69.10;;;24.09;52.71;94651.34;5070837;28;20212;-80
2022/07/01 04:51:10;;;;;;;0.30;0.30;;;23.60;69.00;;;24.14;53.05;94656.66;5055229;28;20692;-80
2022/07/01 04:53:38;;;;;;;0.30;0.30;;;23.60;68.80;;;24.25;52.63;94667.28;5070171;28;20436;-80
2022/07/01 04:56:05;;;;;;;0.40;0.40;;;23.70;68.70;;;24.29;52.55;94662.94;5035028;28;20655;-80
2022/07/01 04:58:32;;;;;;;0.30;0.30;;;23.80;68.70;;;24.35;52.29;94663.69;5052986;28;20294;-80
2022/07/01 05:00:59;;;;;;;0.30;0.30;;;23.80;68.50;;;24.37;52.07;94664.19;5051303;28;20237;-80
2022/07/01 05:03:26;;;;;;;0.30;0.30;;;23.90;68.40;;;24.41;52.17;94668.72;5047281;28;20574;-80
2022/07/01 05:05:53;;;;;;;0.30;0.30;;;24.00;68.20;;;24.46;52.29;94673.19;5077695;28;20211;-81
2022/07/01 05:08:20;;;;;;;0.30;0.30;;;24.00;68.20;;;24.46;52.42;94665.97;5074848;28;20230;-80
2022/07/01 05:10:48;;;;;;;0.30;0.30;;;24.00;68.30;;;24.57;52.43;94673.88;5067279;28;20218;-80
2022/07/01 05:13:15;;;;;;;0.30;0.30;;;24.10;68.30;;;24.60;51.86;94667.97;5053410;28;20199;-80
2022/07/01 05:15:42;;;;;;;0.43;0.43;;;24.20;68.30;;;24.66;52.06;94668.69;5052203;28;20688;-79
2022/07/01 05:23:41;;;;;;;0.30;0.30;;;24.40;68.40;;;24.90;51.51;94674.84;5061666;28;20184;-80
2022/07/01 05:26:08;;;;;;;0.47;0.47;;;24.50;68.10;;;24.99;52.03;94677.69;5055875;28;20227;-80
2022/07/01 05:28:35;;;;;;;0.30;0.30;;;24.60;68.00;;;25.08;51.57;94685.88;5059820;28;20288;-81
2022/07/01 05:31:02;;;;;;;0.30;0.30;;;24.60;67.70;;;25.14;51.84;94681.25;5040366;28;20765;-80
2022/07/01 05:33:29;;;;;;;0.40;0.40;;;24.70;67.90;;;25.23;51.83;94680.31;5069359;28;20230;-81
2022/07/01 05:35:56;;;;;;;0.30;0.30;;;24.80;67.80;;;25.33;51.75;94689.28;5069512;28;20229;-80
2022/07/01 05:38:23;;;;;;;0.40;0.40;;;24.90;67.80;;;25.41;51.60;94685.97;5066449;28;20191;-79
2022/07/01 05:40:52;;;;;;;0.30;0.30;;;24.90;67.60;;;25.49;51.55;94681.84;5072371;28;20483;-80
2022/07/01 05:43:19;;;;;;;0.30;0.30;;;25.00;67.40;;;25.55;51.51;94684.16;5069882;28;20220;-80
2022/07/01 05:45:47;;;;;;;0.30;0.30;;;25.10;67.50;;;25.59;50.95;94684.38;5047329;28;20217;-80
2022/07/01 05:48:14;;;;;;;0.50;0.50;;;25.20;67.50;;;25.67;50.93;94677.50;5031533;28;20202;-79
2022/07/01 05:50:41;;;;;;;0.30;0.30;;;25.30;67.60;;;25.74;51.06;94683.31;5031271;28;20705;-79
2022/07/01 05:53:09;;;;;;;0.30;0.30;;;25.40;67.60;;;25.79;50.87;94685.13;5048729;28;20195;-80
2022/07/01 05:55:37;;;;;;;0.30;0.30;;;25.40;67.30;;;25.82;50.74;94676.50;5032834;28;20229;-78
2022/07/01 05:58:06;;;;;;;0.30;0.30;;;25.40;67.20;;;25.79;50.81;94680.53;5026975;28;20204;-79
2022/07/01 06:00:33;;;;;;;0.30;0.30;;;25.30;67.20;;;25.77;50.43;94679.25;5057320;28;20323;-79
2022/07/01 06:03:00;;;;;;;0.35;0.35;;;25.30;67.00;;;25.72;50.49;94683.63;5051700;28;20192;-78
2022/07/01 06:05:29;;;;;;;0.40;0.40;;;25.30;67.00;;;25.65;50.36;94674.34;5045207;28;20228;-79
2022/07/01 06:07:57;;;;;;;0.30;0.30;;;25.30;67.10;;;25.64;50.65;94680.81;5070907;28;20195;-79
2022/07/01 06:10:24;;;;;;;0.35;0.35;;;25.20;67.00;;;25.58;50.58;94690.81;5056229;28;20863;-79
2022/07/01 06:12:52;;;;;;;0.30;0.30;;;25.20;67.20;;;25.53;50.54;94688.22;5037945;28;20228;-78
2022/07/01 06:15:19;;;;;;;0.25;0.25;;;25.20;67.20;;;25.50;50.67;94694.97;5050437;28;20227;-80
2022/07/01 06:17:46;;;;;;;0.30;0.30;;;25.20;67.50;;;25.48;51.04;94693.69;5033396;28;20216;-79
2022/07/01 06:20:13;;;;;;;0.50;0.50;;;25.20;67.60;;;25.50;50.93;94694.97;5025039;28;20589;-79
2022/07/01 06:22:40;;;;;;;0.30;0.30;;;25.10;67.40;;;25.53;51.20;94698.97;5049377;28;20673;-79
2022/07/01 06:25:08;;;;;;;0.40;0.40;;;25.20;67.50;;;25.57;51.44;94705.34;5040651;28;20321;-79
2022/07/01 06:27:43;;;;;;;0.40;0.40;;;25.20;67.60;;;25.62;51.53;94707.16;5033607;28;20236;-79
2022/07/01 06:30:12;;;;;;;0.30;0.30;;;25.20;67.60;;;25.79;51.41;94718.16;5040661;28;20239;-79
2022/07/01 06:32:40;;;;;;;0.28;0.28;;;25.30;67.70;;;25.89;51.29;94714.53;5036761;28;20208;-80
2022/07/01 06:35:08;;;;;;;0.30;0.30;;;25.40;67.70;;;26.02;51.70;94721.84;5052797;28;20232;-79
2022/07/01 06:37:36;;;;;;;0.35;0.35;;;25.50;67.70;;;26.17;51.39;94725.34;5033261;28;20248;-79
2022/07/01 06:40:06;;;;;;;0.40;0.40;;;25.60;67.70;;;26.30;51.13;94729.97;5054327;28;20233;-80
2022/07/01 06:42:33;;;;;;;0.30;0.30;;;25.70;67.80;;;26.44;51.12;94729.19;5022856;28;20683;-80
2022/07/01 06:45:01;;;;;;;0.30;0.30;;;25.90;67.90;;;26.57;50.89;94735.69;5049997;28;20239;-78
2022/07/01 06:47:29;;;;;;;0.30;0.30;;;26.10;68.10;;;26.69;50.99;94731.38;5030599;28;20297;-79
2022/07/01 06:49:56;;;;;;;0.30;0.30;;;26.20;68.00;;;26.84;50.53;94742.97;5050167;28;20233;-79
2022/07/01 06:52:30;;;;;;;0.30;0.30;;;26.30;67.70;;;26.92;50.45;94747.66;5035682;28;20206;-79
2022/07/01 06:54:57;;;;;;;0.30;0.30;;;26.50;67.10;;;26.97;50.69;94754.84;5042464;28;20237;-79
2022/07/01 06:57:24;;;;;;;0.30;0.30;;;26.50;66.90;;;26.97;50.37;94746.78;5052870;28;20308;-79
2022/07/01 06:59:52;;;;;;;0.30;0.30;;;26.60;67.10;;;26.92;50.22;94746.88;5034158;28;20229;-80
2022/07/01 07:02:20;;;;;;;0.30;0.30;;;26.60;66.90;;;26.82;50.73;94762.13;5040682;28;20232;-80
2022/07/01 07:04:57;;;;;;;0.30;0.30;;;26.60;66.90;;;26.78;50.89;94746.88;5015488;28;20228;-78
2022/07/01 07:07:28;;;;;;;0.30;0.30;;;26.60;67.30;;;26.74;51.63;94749.31;5065498;28;20192;-77
2022/07/01 07:09:56;;;;;;;0.30;0.30;;;26.50;67.40;;;26.72;51.77;94759.63;5057289;28;20233;-77
2022/07/01 07:12:24;;;;;;;0.30;0.30;;;26.50;67.50;;;26.72;52.08;94753.41;5051204;28;20210;-78
2022/07/01 07:14:52;;;;;;;0.30;0.30;;;26.50;68.20;;;26.73;51.83;94746.94;5035845;28;20236;-77
2022/07/01 07:17:19;;;;;;;0.30;0.30;;;26.50;68.30;;;26.70;51.81;94745.66;5036363;28;20231;-79
2022/07/01 07:19:46;;;;;;;0.40;0.40;;;26.50;68.20;;;26.68;52.73;94737.06;5042469;28;20780;-78
2022/07/01 07:22:13;;;;;;;0.30;0.30;;;26.50;68.20;;;26.66;52.43;94729.31;5044537;28;20275;-78
2022/07/01 07:24:40;;;;;;;0.30;0.30;;;26.50;68.20;;;26.67;52.60;94740.84;5077288;28;20219;-78
2022/07/01 07:27:10;;;;;;;0.20;0.20;;;26.50;68.20;;;26.75;52.96;94732.13;5073052;28;20571;-79
2022/07/01 07:29:37;;;;;;;0.43;0.43;;;26.50;68.30;;;26.77;52.90;94734.50;5045195;28;20422;-78
2022/07/01 07:32:05;;;;;;;0.20;0.20;;;26.50;68.20;;;26.87;52.78;94736.19;5074208;28;20234;-79
2022/07/01 07:34:34;;;;;;;0.40;0.40;;;26.50;68.20;;;26.91;52.68;94740.69;5042270;28;20199;-79
2022/07/01 07:37:02;;;;;;;0.30;0.30;;;26.60;68.40;;;26.97;52.67;94741.41;5073392;28;20310;-78
2022/07/01 07:39:29;;;;;;;0.40;0.40;;;26.60;68.40;;;27.00;53.20;94741.59;5047671;28;20816;-78
2022/07/01 07:41:59;;;;;;;0.30;0.30;;;26.70;68.50;;;27.04;52.92;94747.16;5030477;28;20208;-79
2022/07/01 07:44:27;;;;;;;0.30;0.30;;;26.70;68.40;;;27.10;53.34;94748.66;5050972;28;20290;-79
2022/07/01 07:46:54;;;;;;;0.40;0.40;;;26.80;68.50;;;27.15;52.63;94745.84;5078233;28;20591;-78
2022/07/01 07:49:21;;;;;;;0.20;0.20;;;26.90;68.50;;;27.21;53.10;94745.75;5062416;28;20204;-79
2022/07/01 07:51:48;;;;;;;0.30;0.30;;;26.90;68.50;;;27.33;53.44;94748.69;5067707;28;20208;-79
2022/07/01 07:54:15;;;;;;;0.30;0.30;;;27.00;68.60;;;27.45;53.25;94762.50;5061113;28;20199;-79
2022/07/01 07:56:44;;;;;;;0.30;0.30;;;27.10;69.10;;;27.60;53.22;94765.94;5050353;28;20266;-79
2022/07/01 07:59:12;;;;;;;0.30;0.30;;;27.20;68.70;;;27.74;52.89;94763.22;5060932;28;20196;-78
2022/07/01 08:01:39;;;;;;;0.30;0.30;;;27.40;68.80;;;27.85;51.75;94763.78;5056011;28;20215;-78
2022/07/01 08:04:07;;;;;;;0.30;0.30;;;27.50;68.40;;;27.94;51.95;94773.50;5061477;28;20232;-78
2022/07/01 08:06:34;;;;;;;0.40;0.40;;;27.60;68.00;;;27.98;51.59;94780.97;5065807;28;20587;-77
2022/07/01 08:09:03;;;;;;;0.35;0.35;;;27.70;67.50;;;28.03;51.48;94767.41;5064065;28;20570;-78
2022/07/01 08:11:30;;;;;;;0.30;0.30;;;27.70;67.70;;;28.09;51.93;94775.06;5046554;28;20219;-78
2022/07/01 08:13:57;;;;;;;0.30;0.30;;;27.80;67.70;;;28.19;51.58;94771.31;5068458;28;20232;-78
2022/07/01 08:16:24;;;;;;;0.30;0.30;;;27.90;67.80;;;28.33;51.62;94770.44;5049075;28;20223;-78
2022/07/01 08:18:51;;;;;;;0.30;0.30;;;28.00;67.40;;;28.47;51.11;94767.69;5059656;28;20198;-78
2022/07/01 08:21:18;;;;;;;0.30;0.30;;;28.10;67.70;;;28.62;50.86;94769.19;5044815;28;20361;-78
2022/07/01 08:23:45;;;;;;;0.30;0.30;;;28.20;67.30;;;28.80;51.37;94776.28;5070189;28;20209;-78
2022/07/01 08:26:14;;;;;;;0.35;0.35;;;28.40;67.60;;;29.00;51.48;94763.31;5051517;28;20270;-78
2022/07/01 08:28:42;;;;;;;0.40;0.40;;;28.50;67.40;;;29.16;50.53;94769.88;5070960;28;20224;-78
2022/07/01 08:31:10;;;;;;;0.38;0.38;;;28.70;66.80;;;29.21;49.34;94768.91;5046353;28;20326;-78
2022/07/01 08:33:37;;;;;;;0.30;0.30;;;28.90;65.70;;;29.28;48.87;94768.47;5061425;28;20204;-79
2022/07/01 08:36:06;;;;;;;0.30;0.30;;;29.00;65.60;;;29.34;49.28;94768.03;5075991;28;20227;-78
2022/07/01 08:38:35;;;;;;;0.30;0.30;;;29.10;65.60;;;29.44;48.79;94777.72;5033875;28;20230;-78
2022/07/01 08:41:04;;;;;;;0.30;0.30;;;29.20;65.10;;;29.45;48.57;94787.44;5048099;28;20232;-78
2022/07/01 08:43:33;;;;;;;0.30;0.30;;;29.30;64.80;;;29.51;48.94;94783.47;5060328;28;20200;-78
2022/07/01 08:46:03;;;;;;;0.30;0.30;;;29.40;64.80;;;29.54;47.52;94799.06;5055948;28;20253;-78
2022/07/01 08:48:30;;;;;;;0.30;0.30;;;29.40;64.00;;;29.51;47.44;94786.19;5073165;28;20202;-78
2022/07/01 08:50:58;;;;;;;0.38;0.38;;;29.50;63.80;;;29.47;47.31;94795.25;5060855;28;20603;-77
2022/07/01 08:53:25;;;;;;;0.30;0.30;;;29.50;63.70;;;29.41;48.16;94791.88;5041086;28;20213;-78
2022/07/01 08:58:38;;;;;;;0.30;0.30;;;29.40;64.20;;;29.56;48.82;94790.63;5045018;28;20284;-79
2022/07/01 09:01:16;;;;;;;0.40;0.40;;;29.50;64.40;;;29.66;48.54;94793.03;5043025;28;20217;-79
2022/07/01 09:03:47;;;;;;;0.30;0.30;;;29.50;64.20;;;29.75;47.98;94794.94;5042482;28;20218;-79
2022/07/01 09:06:20;;;;;;;0.40;0.40;;;29.60;64.30;;;29.82;48.08;94798.78;5044578;28;20214;-79
2022/07/01 09:08:47;;;;;;;0.25;0.25;;;29.60;64.20;;;29.95;48.42;94788.16;5056409;28;20196;-78
2022/07/01 09:11:25;;;;;;;0.25;0.25;;;29.70;64.60;;;30.06;47.59;94794.81;5040954;28;20222;-79
2022/07/01 09:14:15;;;;;;;0.40;0.40;;;29.80;63.70;;;30.06;47.60;94792.09;5028805;28;21349;-78
2022/07/01 09:16:51;;;;;;;0.30;0.30;;;29.90;63.40;;;30.07;47.10;94799.13;5043744;28;20223;-78
2022/07/01 09:19:22;;;;;;;0.20;0.20;;;30.00;63.00;;;30.08;46.89;94799.91;5031864;28;20552;-78
2022/07/01 09:22:01;;;;;;;0.40;0.40;;;30.00;62.90;;;30.05;46.33;94793.22;5066578;28;20228;-78
2022/07/01 09:24:37;;;;;;;0.20;0.20;;;30.00;62.80;;;30.03;46.43;94800.88;5063248;28;20217;-79
2022/07/01 09:27:16;;;;;;;0.20;0.20;;;30.00;62.80;;;29.97;46.20;94802.16;5071336;28;20632;-79
2022/07/01 09:29:51;;;;;;;0.30;0.30;;;30.00;62.10;;;29.81;46.40;94799.06;5060990;28;20217;-78
2022/07/01 09:32:21;;;;;;;0.30;0.30;;;29.90;62.30;;;29.72;46.48;94804.47;5031328;28;20193;-79
2022/07/01 09:34:52;;;;;;;0.20;0.20;;;29.90;62.30;;;29.63;46.42;94784.78;5052893;28;20215;-78
2022/07/01 09:37:25;;;;;;;0.30;0.30;;;29.70;62.60;;;29.61;47.44;94793.19;5055197;28;20223;-79
2022/07/01 09:39:56;;;;;;;0.30;0.30;;;29.70;62.80;;;29.64;47.29;94797.19;5035507;28;20275;-78
2022/07/01 09:42:26;;;;;;;0.30;0.30;;;29.60;63.10;;;29.75;47.82;94797.66;5052179;28;20210;-79
2022/07/01 09:44:57;;;;;;;0.30;0.30;;;29.60;64.10;;;29.88;46.55;94807.50;5054979;28;20571;-78
2022/07/01 09:47:31;;;;;;;0.20;0.20;;;29.70;63.20;;;29.95;47.00;94794.34;5043560;28;20236;-79
2022/07/01 09:49:59;;;;;;;0.30;0.30;;;29.80;63.00;;;30.04;46.99;94810.56;5058150;28;20311;-78
2022/07/01 09:52:26;;;;;;;0.30;0.30;;;29.80;63.00;;;30.07;46.41;94801.03;5049083;28;20233;-77
2022/07/01 09:55:05;;;;;;;0.30;0.30;;;29.90;62.50;;;30.09;45.93;94794.19;5043220;28;20224;-78
2022/07/01 09:57:32;;;;;;;0.30;0.30;;;30.00;62.70;;;30.15;46.25;94798.31;5058561;28;20602;-78
2022/07/01 09:59:59;;;;;;;0.28;0.28;;;30.00;62.70;;;30.16;46.16;94807.22;5054558;28;20299;-77
2022/07/01 10:02:30;;;;;;;0.30;0.30;;;30.10;62.10;;;30.21;46.54;94803.56;5075345;28;20200;-78
2022/07/01 10:05:08;;;;;;;0.30;0.30;;;30.10;62.50;;;30.26;46.10;94804.19;5069338;28;20226;-78
2022/07/01 10:08:15;;;;;;;0.30;0.30;;;30.20;62.50;;;30.34;46.38;94799.88;5061063;28;20193;-78
2022/07/01 10:10:51;;;;;;;0.30;0.30;;;30.20;62.20;;;30.37;46.26;94790.31;5051451;28;20646;-78
2022/07/01 10:13:25;;;;;;;0.30;0.30;;;30.30;62.40;;;30.45;46.55;94793.00;5073212;28;20241;-78
2022/07/01 10:15:56;;;;;;;0.30;0.30;;;30.30;62.40;;;30.49;45.96;94799.41;5081236;28;20207;-77
2022/07/01 10:18:26;;;;;;;0.30;0.30;;;30.40;62.30;;;30.49;46.25;94793.16;5069885;28;20205;-78
2022/07/01 10:20:54;;;;;;;0.28;0.28;;;30.30;62.00;;;30.48;45.92;94792.38;5069866;28;20232;-78
2022/07/01 10:23:27;;;;;;;0.30;0.30;;;30.40;62.10;;;30.56;46.26;94793.50;5069716;28;20204;-78
2022/07/01 10:26:03;;;;;;;0.40;0.40;;;30.40;62.20;;;30.59;45.62;94783.94;5041205;28;20216;-77
2022/07/01 10:28:45;;;;;;;0.40;0.40;;;30.50;61.90;;;30.69;45.75;94780.88;5071889;28;20251;-79
2022/07/01 10:31:17;;;;;;;0.30;0.30;;;30.60;62.20;;;30.81;45.50;94774.78;5041743;28;20308;-78
2022/07/01 10:33:49;;;;;;;0.30;0.30;;;30.70;61.90;;;30.87;45.32;94778.09;5052787;28;20260;-78
2022/07/01 10:36:22;;;;;;;0.30;0.30;;;30.70;61.80;;;30.88;45.22;94768.84;5061789;28;20321;-78
2022/07/01 10:39:07;;;;;;;0.30;0.30;;;30.80;61.80;;;30.86;45.14;94771.91;5065001;28;20313;-78
2022/07/01 10:41:38;;;;;;;0.40;0.40;;;30.80;61.80;;;30.87;45.65;94776.19;5054161;28;20593;-77
2022/07/01 10:44:15;;;;;;;0.30;0.30;;;30.80;61.50;;;30.91;45.26;94766.28;5039206;28;20211;-78